Time;durP1;ratioP1;P1;durP2;ratioP2;P2;SDS_P1;SDS_P2;PMS_P1;PMS_P2;Temp;Humidity;BMP_temperature;BMP_pressure;BME280_temperature;BME280_humidity;BME280_pressure;Samples;Min_cycle;Max_cycle;Signal;HPM_P1;HPM_P2
2023/07/02 00:02:15;;;;;;;1.40;0.60;;;23.40;59.40;;;;;;2545630;54;21022;-71
2023/07/02 00:04:42;;;;;;;1.83;0.70;;;23.40;59.40;;;;;;2308393;55;20979;-71
2023/07/02 00:07:08;;;;;;;1.30;0.60;;;23.40;59.30;;;;;;2511786;54;20956;-69
2023/07/02 00:09:36;;;;;;;1.58;0.70;;;23.40;59.40;;;;;;2308293;55;21377;-71
2023/07/02 00:12:03;;;;;;;1.50;0.60;;;23.30;59.30;;;;;;2306144;55;20935;-72
2023/07/02 00:14:29;;;;;;;1.55;0.70;;;23.30;59.40;;;;;;2546919;54;20939;-70
2023/07/02 00:16:55;;;;;;;1.45;0.65;;;23.20;59.40;;;;;;2529867;54;20978;-70
2023/07/02 00:19:22;;;;;;;1.45;0.60;;;23.20;59.40;;;;;;2528407;54;20944;-72
2023/07/02 00:21:48;;;;;;;1.52;0.70;;;23.20;59.40;;;;;;2284106;55;20982;-70
2023/07/02 00:24:15;;;;;;;1.58;0.60;;;23.00;59.20;;;;;;2283191;56;20985;-71
2023/07/02 00:26:42;;;;;;;1.15;0.57;;;23.20;59.40;;;;;;2305417;55;20988;-71
2023/07/02 00:29:12;;;;;;;1.62;0.80;;;23.10;59.40;;;;;;2308980;55;22236;-70
2023/07/02 00:31:38;;;;;;;1.52;0.60;;;23.10;59.50;;;;;;2546945;54;20932;-72
2023/07/02 00:34:04;;;;;;;2.00;1.00;;;23.10;59.50;;;;;;2546935;54;21023;-72
2023/07/02 00:36:30;;;;;;;1.33;0.60;;;23.10;59.50;;;;;;2546747;54;21015;-72
2023/07/02 00:38:58;;;;;;;2.05;0.88;;;23.10;59.50;;;;;;2547614;54;20982;-72
2023/07/02 00:41:24;;;;;;;1.33;0.70;;;23.10;59.50;;;;;;2511867;54;20989;-72
2023/07/02 00:43:54;;;;;;;1.65;0.60;;;23.00;59.40;;;;;;2307249;55;21049;-72
2023/07/02 00:46:30;;;;;;;1.27;0.60;;;23.00;59.40;;;;;;2547235;54;20920;-72
2023/07/02 00:48:56;;;;;;;1.80;0.70;;;23.10;59.50;;;;;;2547295;54;20936;-70
2023/07/02 00:51:26;;;;;;;1.62;0.60;;;23.00;59.40;;;;;;2547253;54;20971;-70
2023/07/02 00:53:56;;;;;;;1.60;0.80;;;23.00;59.40;;;;;;2307889;55;20952;-71
2023/07/02 00:56:22;;;;;;;2.25;0.90;;;23.00;59.50;;;;;;2308434;55;21703;-72
2023/07/02 00:58:50;;;;;;;1.87;0.95;;;22.90;59.40;;;;;;2546850;54;20995;-71
2023/07/02 01:01:25;;;;;;;1.85;0.90;;;22.80;59.40;;;;;;2516096;54;21069;-70
2023/07/02 01:03:53;;;;;;;1.17;0.60;;;22.90;59.50;;;;;;2545043;54;21358;-71
2023/07/02 01:06:25;;;;;;;1.23;0.60;;;22.90;59.50;;;;;;2308632;55;21071;-71
2023/07/02 01:09:02;;;;;;;2.92;0.70;;;22.80;59.50;;;;;;2304683;55;21018;-71
2023/07/02 01:12:17;;;;;;;1.52;0.65;;;22.80;59.50;;;;;;2306543;55;20966;-70
2023/07/02 01:14:52;;;;;;;1.25;0.50;;;22.80;59.50;;;;;;2546492;54;20939;-74
2023/07/02 01:17:19;;;;;;;1.70;0.70;;;22.80;59.50;;;;;;2286017;55;21049;-70
2023/07/02 01:20:03;;;;;;;1.80;0.70;;;22.80;59.50;;;;;;2539065;54;20983;-71
2023/07/02 01:22:30;;;;;;;1.35;0.70;;;22.80;59.60;;;;;;2282963;56;20987;-72
2023/07/02 01:24:58;;;;;;;1.37;0.70;;;22.80;59.60;;;;;;2308504;55;21627;-76
2023/07/02 01:27:24;;;;;;;2.00;0.80;;;22.80;59.70;;;;;;2300135;55;21460;-69
2023/07/02 01:29:51;;;;;;;1.85;0.70;;;22.80;59.70;;;;;;2547160;54;20951;-71
2023/07/02 01:32:18;;;;;;;2.17;1.00;;;22.80;59.80;;;;;;2542207;54;20937;-70
2023/07/02 01:34:49;;;;;;;3.55;0.90;;;22.80;59.80;;;;;;2535127;54;20931;-70
2023/07/02 01:37:16;;;;;;;1.73;0.70;;;22.80;59.90;;;;;;2540701;54;20987;-71
2023/07/02 01:39:46;;;;;;;1.92;0.82;;;22.80;59.90;;;;;;2535433;54;21031;-70
2023/07/02 01:42:15;;;;;;;1.90;0.90;;;22.80;60.00;;;;;;2543282;54;21039;-71
2023/07/02 01:44:47;;;;;;;5.00;1.10;;;22.80;60.00;;;;;;2300676;55;20956;-72
2023/07/02 01:47:16;;;;;;;2.67;0.98;;;22.80;60.00;;;;;;2547902;54;21016;-70
2023/07/02 01:49:42;;;;;;;2.15;1.10;;;22.80;60.10;;;;;;2538975;54;21893;-71
2023/07/02 01:52:09;;;;;;;1.80;0.90;;;22.80;60.10;;;;;;2547066;54;20939;-71
2023/07/02 01:54:35;;;;;;;2.60;0.98;;;22.80;60.20;;;;;;2545159;54;21000;-70
2023/07/02 01:57:05;;;;;;;2.42;1.10;;;22.70;60.20;;;;;;2547609;54;20987;-71
2023/07/02 01:59:32;;;;;;;2.62;1.08;;;22.80;60.30;;;;;;2308661;55;20935;-71
2023/07/02 02:01:59;;;;;;;1.80;1.00;;;22.80;60.40;;;;;;2540945;54;21047;-72
2023/07/02 02:04:32;;;;;;;2.08;1.05;;;22.70;60.30;;;;;;2308872;55;21000;-69
2023/07/02 02:06:59;;;;;;;1.77;0.85;;;22.80;60.60;;;;;;2305208;55;21030;-70
2023/07/02 02:09:32;;;;;;;1.73;0.80;;;22.80;60.50;;;;;;2282744;56;21004;-71
2023/07/02 02:11:59;;;;;;;1.70;0.70;;;22.80;60.50;;;;;;2547158;54;20960;-71
2023/07/02 02:14:27;;;;;;;1.75;0.90;;;22.80;60.50;;;;;;2540441;54;20916;-70
2023/07/02 02:17:02;;;;;;;2.55;0.82;;;22.80;60.50;;;;;;2547174;54;20936;-73
2023/07/02 02:19:29;;;;;;;1.75;0.80;;;22.80;60.70;;;;;;2546826;54;21571;-70
2023/07/02 02:21:57;;;;;;;1.67;0.70;;;22.80;60.50;;;;;;2547119;54;20923;-69
2023/07/02 02:24:24;;;;;;;3.37;1.00;;;22.80;60.50;;;;;;2302424;55;21683;-70
2023/07/02 02:26:51;;;;;;;2.25;1.08;;;22.80;61.20;;;;;;2546691;54;21024;-71
2023/07/02 02:29:18;;;;;;;2.85;1.10;;;22.80;60.40;;;;;;2547269;54;20939;-71
2023/07/02 02:31:45;;;;;;;2.08;0.98;;;22.80;60.30;;;;;;2294060;55;20953;-71
2023/07/02 02:34:11;;;;;;;2.28;1.08;;;22.80;60.10;;;;;;2297121;55;20920;-70
2023/07/02 02:36:37;;;;;;;2.50;1.00;;;22.80;59.90;;;;;;2540028;54;21464;-71
2023/07/02 02:39:04;;;;;;;2.53;1.17;;;22.70;59.60;;;;;;2308334;55;20973;-72
2023/07/02 02:41:40;;;;;;;1.98;0.93;;;22.70;59.60;;;;;;2302081;55;20993;-71
2023/07/02 02:44:10;;;;;;;1.75;0.77;;;22.70;59.60;;;;;;2542631;54;21039;-70
2023/07/02 02:46:37;;;;;;;2.95;1.30;;;22.60;59.40;;;;;;2546451;54;21000;-70
2023/07/02 02:49:04;;;;;;;2.00;0.80;;;22.60;59.40;;;;;;2547757;54;20972;-70
2023/07/02 02:51:30;;;;;;;3.22;1.10;;;22.60;59.40;;;;;;2541782;54;21418;-71
2023/07/02 02:54:29;;;;;;;2.25;0.90;;;22.50;59.30;;;;;;2546588;54;20960;-70
2023/07/02 02:56:56;;;;;;;2.70;1.12;;;22.50;59.40;;;;;;2308338;55;20956;-70
2023/07/02 02:59:25;;;;;;;2.50;0.95;;;22.50;59.40;;;;;;2547717;54;21777;-70
2023/07/02 03:01:51;;;;;;;1.95;0.90;;;22.50;59.50;;;;;;2547027;54;20951;-71
2023/07/02 03:04:17;;;;;;;1.90;0.80;;;22.50;59.50;;;;;;2547932;54;20980;-70
2023/07/02 03:06:44;;;;;;;2.50;0.93;;;22.40;59.50;;;;;;2546834;54;21504;-69
2023/07/02 03:09:31;;;;;;;2.22;0.90;;;22.40;59.50;;;;;;2302414;55;20940;-71
2023/07/02 03:11:57;;;;;;;1.98;0.90;;;22.40;59.50;;;;;;2547301;54;20952;-71
2023/07/02 03:14:24;;;;;;;2.00;0.90;;;22.40;59.50;;;;;;2546802;54;20966;-69
2023/07/02 03:16:50;;;;;;;3.22;1.30;;;22.40;59.50;;;;;;2307994;55;20967;-70
2023/07/02 03:19:16;;;;;;;1.85;0.90;;;22.40;59.50;;;;;;2548162;54;21076;-70
2023/07/02 03:21:43;;;;;;;2.35;1.12;;;22.40;59.50;;;;;;2546752;54;20924;-70
2023/07/02 03:24:13;;;;;;;1.90;1.00;;;22.40;59.50;;;;;;2547349;54;20976;-71
2023/07/02 03:26:42;;;;;;;3.67;1.15;;;22.40;59.50;;;;;;2540198;54;20955;-70
2023/07/02 03:29:11;;;;;;;3.03;1.08;;;22.30;59.30;;;;;;2308725;55;20999;-71
2023/07/02 03:31:38;;;;;;;2.03;0.90;;;22.40;59.40;;;;;;2546892;54;21015;-70
2023/07/02 03:34:09;;;;;;;2.33;1.10;;;22.30;59.30;;;;;;2546628;54;21474;-69
2023/07/02 03:36:59;;;;;;;1.95;0.80;;;22.30;59.30;;;;;;2290914;55;21746;-68
2023/07/02 03:39:25;;;;;;;2.30;0.82;;;22.30;59.20;;;;;;2547056;54;20987;-70
2023/07/02 03:42:05;;;;;;;2.58;1.00;;;22.30;59.20;;;;;;2542350;54;21734;-69
2023/07/02 03:44:32;;;;;;;2.53;1.02;;;22.30;59.20;;;;;;2291735;55;20965;-69
2023/07/02 03:46:58;;;;;;;2.22;0.98;;;22.20;59.20;;;;;;2535617;54;20978;-70
2023/07/02 03:49:25;;;;;;;2.15;0.90;;;22.20;59.20;;;;;;2308498;55;21008;-70
2023/07/02 03:51:57;;;;;;;2.83;1.08;;;22.20;59.20;;;;;;2308790;55;21116;-72
2023/07/02 03:54:24;;;;;;;2.25;1.17;;;22.20;59.20;;;;;;2309387;55;20936;-71
2023/07/02 03:56:50;;;;;;;2.47;1.08;;;22.10;59.10;;;;;;2510373;54;21061;-70
2023/07/02 03:59:16;;;;;;;3.00;1.42;;;22.10;59.20;;;;;;2302532;55;20986;-71
2023/07/02 04:02:10;;;;;;;2.78;1.27;;;22.10;59.20;;;;;;2520067;54;21465;-70
2023/07/02 04:04:36;;;;;;;2.50;1.20;;;22.10;59.20;;;;;;2308674;55;20962;-70
2023/07/02 04:07:02;;;;;;;2.97;1.40;;;22.10;59.20;;;;;;2547977;54;20944;-70
2023/07/02 04:09:29;;;;;;;3.00;1.35;;;22.10;59.20;;;;;;2308915;55;20987;-70
2023/07/02 04:11:55;;;;;;;1.75;0.80;;;22.00;59.20;;;;;;2547316;54;21332;-71
2023/07/02 04:14:21;;;;;;;2.70;1.10;;;22.00;59.20;;;;;;2548160;54;20939;-70
2023/07/02 04:17:37;;;;;;;2.58;0.88;;;22.00;59.30;;;;;;2547019;54;20992;-71
2023/07/02 04:20:04;;;;;;;2.67;1.15;;;22.00;59.30;;;;;;2309496;55;21403;-70
2023/07/02 04:22:30;;;;;;;2.55;1.00;;;22.00;59.30;;;;;;2522930;54;20934;-71
2023/07/02 04:24:56;;;;;;;3.30;0.98;;;22.00;59.30;;;;;;2299325;55;21932;-71
2023/07/02 04:27:23;;;;;;;2.08;0.90;;;22.00;59.30;;;;;;2309461;55;21008;-69
2023/07/02 04:29:49;;;;;;;3.37;1.05;;;22.00;59.30;;;;;;2546751;54;21718;-70
2023/07/02 04:32:16;;;;;;;2.35;0.93;;;22.00;59.30;;;;;;2309183;55;20943;-71
2023/07/02 04:34:43;;;;;;;2.17;0.90;;;22.00;59.40;;;;;;2547410;54;20947;-71
2023/07/02 04:40:46;;;;;;;3.00;1.30;;;22.00;59.50;;;;;;2548152;54;20964;-70
2023/07/02 04:43:12;;;;;;;2.33;0.98;;;22.00;59.50;;;;;;2544679;54;20920;-69
2023/07/02 04:45:39;;;;;;;2.78;1.10;;;22.00;59.40;;;;;;2539905;54;20912;-69
2023/07/02 04:48:06;;;;;;;2.60;1.00;;;22.00;59.50;;;;;;2547796;54;20955;-71
2023/07/02 04:50:33;;;;;;;3.10;1.02;;;22.00;59.50;;;;;;2510605;54;20940;-71
2023/07/02 04:53:17;;;;;;;2.35;1.10;;;21.90;59.50;;;;;;2308219;55;21408;-71
2023/07/02 04:55:47;;;;;;;2.22;1.00;;;22.00;59.70;;;;;;2524963;54;21025;-71
2023/07/02 04:58:42;;;;;;;2.10;0.93;;;22.00;59.60;;;;;;2290172;56;20999;-71
2023/07/02 05:01:08;;;;;;;1.92;0.90;;;22.00;59.70;;;;;;2511335;54;20976;-72
2023/07/02 05:03:37;;;;;;;2.55;1.15;;;22.00;59.60;;;;;;2293618;55;20974;-72
2023/07/02 05:06:04;;;;;;;2.75;1.23;;;22.00;59.70;;;;;;2282371;56;20927;-71
2023/07/02 05:08:31;;;;;;;3.83;1.40;;;22.00;59.70;;;;;;2297797;55;21051;-70
2023/07/02 05:10:59;;;;;;;3.20;1.00;;;22.00;59.80;;;;;;2301400;55;20956;-70
2023/07/02 05:13:50;;;;;;;2.12;0.90;;;22.00;59.80;;;;;;2305196;55;20976;-71
2023/07/02 05:16:47;;;;;;;2.33;1.00;;;22.00;59.90;;;;;;2309146;55;21027;-71
2023/07/02 05:22:41;;;;;;;2.28;1.12;;;22.10;60.00;;;;;;2539095;54;20944;-69
2023/07/02 05:25:35;;;;;;;2.90;1.00;;;22.10;59.80;;;;;;2540139;54;20930;-71
2023/07/02 05:28:01;;;;;;;2.47;0.98;;;22.10;59.90;;;;;;2522886;54;21021;-71
2023/07/02 05:30:31;;;;;;;1.87;0.77;;;22.10;59.80;;;;;;2508876;55;21006;-70
2023/07/02 05:32:58;;;;;;;1.95;1.10;;;22.10;59.80;;;;;;2515527;55;20974;-70
2023/07/02 05:38:53;;;;;;;2.65;1.25;;;22.20;60.10;;;;;;2282342;54;21054;-70
2023/07/02 05:41:20;;;;;;;2.22;1.05;;;22.20;60.00;;;;;;2530680;54;21437;-70
2023/07/02 05:43:48;;;;;;;3.72;1.37;;;22.20;60.00;;;;;;2545711;54;20948;-72
2023/07/02 05:46:15;;;;;;;2.70;1.55;;;22.20;60.00;;;;;;2503380;55;20966;-71
2023/07/02 05:48:41;;;;;;;3.12;1.35;;;22.20;60.00;;;;;;2282235;57;20954;-70
2023/07/02 05:54:43;;;;;;;3.08;1.30;;;22.30;60.10;;;;;;2515607;55;21504;-71
2023/07/02 05:57:10;;;;;;;3.78;1.45;;;22.30;60.00;;;;;;2514118;55;21113;-71
2023/07/02 05:59:39;;;;;;;3.20;1.60;;;22.30;60.00;;;;;;2514095;55;21008;-71
2023/07/02 06:02:06;;;;;;;2.60;1.30;;;22.30;60.10;;;;;;2262016;56;21885;-71
2023/07/02 06:04:33;;;;;;;2.90;1.50;;;22.30;60.00;;;;;;2273464;55;21018;-68
2023/07/02 06:06:59;;;;;;;3.33;1.83;;;22.30;60.00;;;;;;2525240;54;21020;-71
2023/07/02 06:09:31;;;;;;;4.97;1.60;;;22.40;60.00;;;;;;2515641;54;20948;-71
2023/07/02 06:11:57;;;;;;;4.40;2.00;;;22.40;60.00;;;;;;2279250;55;21018;-70
2023/07/02 06:14:25;;;;;;;3.35;1.70;;;22.40;59.90;;;;;;2508861;55;20911;-71
2023/07/02 06:20:19;;;;;;;4.90;1.95;;;22.40;60.00;;;;;;2511288;55;21471;-70
2023/07/02 06:22:46;;;;;;;3.92;2.17;;;22.40;59.80;;;;;;2487374;55;21486;-70
2023/07/02 06:25:13;;;;;;;3.83;2.03;;;22.40;59.80;;;;;;2522880;54;20947;-70
2023/07/02 06:27:40;;;;;;;5.28;2.45;;;22.40;59.80;;;;;;2546612;54;20972;-70
2023/07/02 06:30:07;;;;;;;4.57;2.50;;;22.40;59.70;;;;;;2282956;55;21017;-71
2023/07/02 06:32:36;;;;;;;4.15;2.42;;;22.40;59.70;;;;;;2515701;55;20930;-72
2023/07/02 06:35:06;;;;;;;5.72;2.87;;;22.40;59.60;;;;;;2279192;56;21038;-72
2023/07/02 06:37:35;;;;;;;4.22;2.55;;;22.50;59.60;;;;;;2516531;55;20974;-70
2023/07/02 06:40:03;;;;;;;4.78;2.67;;;22.50;59.60;;;;;;2507452;55;20954;-71
2023/07/02 06:42:29;;;;;;;7.28;3.28;;;22.50;59.60;;;;;;2513560;55;20955;-70
2023/07/02 06:44:55;;;;;;;6.53;3.35;;;22.50;59.40;;;;;;2515730;55;20990;-70
2023/07/02 06:47:41;;;;;;;7.75;3.80;;;22.50;59.20;;;;;;2508873;55;21086;-73
2023/07/02 06:50:13;;;;;;;7.12;3.50;;;22.50;58.90;;;;;;2278675;56;21043;-73
2023/07/02 06:52:42;;;;;;;7.37;4.22;;;22.50;59.00;;;;;;2282742;56;20939;-72
2023/07/02 06:55:09;;;;;;;10.55;5.00;;;22.50;58.90;;;;;;2540933;54;20943;-73
2023/07/02 06:57:41;;;;;;;8.52;5.12;;;22.50;58.80;;;;;;2524070;54;21920;-68
2023/07/02 07:00:08;;;;;;;8.27;4.95;;;22.50;58.80;;;;;;2515625;55;20982;-73
2023/07/02 07:02:34;;;;;;;9.57;5.75;;;22.50;58.40;;;;;;2519483;54;21414;-69
2023/07/02 07:05:03;;;;;;;9.23;5.57;;;22.50;58.20;;;;;;2547736;54;20944;-73
2023/07/02 07:07:29;;;;;;;10.20;5.65;;;22.50;58.00;;;;;;2533592;54;21014;-73
2023/07/02 07:09:55;;;;;;;12.55;6.30;;;22.50;57.90;;;;;;2472807;55;21002;-73
2023/07/02 07:12:22;;;;;;;11.98;6.87;;;22.50;57.70;;;;;;2272983;56;20998;-72
2023/07/02 07:14:48;;;;;;;10.55;6.00;;;22.50;57.70;;;;;;2510259;55;20994;-71
2023/07/02 07:17:16;;;;;;;10.15;5.93;;;22.50;57.60;;;;;;2523026;54;21762;-71
2023/07/02 07:19:43;;;;;;;11.43;6.05;;;22.50;57.60;;;;;;2512102;55;21587;-73
2023/07/02 07:22:09;;;;;;;11.30;6.20;;;22.50;57.60;;;;;;2520198;54;20928;-71
2023/07/02 07:24:36;;;;;;;10.77;6.32;;;22.50;57.50;;;;;;2498503;54;20943;-70
2023/07/02 07:27:03;;;;;;;10.50;6.28;;;22.50;57.40;;;;;;2271919;55;20946;-73
2023/07/02 07:29:29;;;;;;;10.50;6.10;;;22.50;57.40;;;;;;2516508;55;20954;-71
2023/07/02 07:31:56;;;;;;;10.70;6.00;;;22.50;57.30;;;;;;2514616;55;20991;-71
2023/07/02 07:34:27;;;;;;;11.12;6.47;;;22.60;57.20;;;;;;2531202;54;20944;-71
2023/07/02 07:36:54;;;;;;;15.25;6.75;;;22.60;57.10;;;;;;2285456;55;21702;-71
2023/07/02 07:39:20;;;;;;;9.93;6.37;;;22.60;57.10;;;;;;2278661;56;21507;-71
2023/07/02 07:41:48;;;;;;;9.00;5.93;;;22.60;57.10;;;;;;2259724;56;21557;-72
2023/07/02 07:44:15;;;;;;;11.63;6.85;;;22.70;57.10;;;;;;2516129;55;21003;-69
2023/07/02 07:46:41;;;;;;;13.52;7.20;;;22.70;57.10;;;;;;2276515;56;20922;-71
2023/07/02 07:49:07;;;;;;;12.80;7.25;;;22.70;56.80;;;;;;2515745;55;21510;-69
2023/07/02 07:51:35;;;;;;;14.38;8.25;;;22.70;56.60;;;;;;2282873;55;20927;-71
2023/07/02 07:54:02;;;;;;;15.98;9.38;;;22.80;56.30;;;;;;2515582;55;21608;-72
2023/07/02 07:56:29;;;;;;;15.30;9.18;;;22.80;56.10;;;;;;2282054;55;20991;-70
2023/07/02 07:58:55;;;;;;;12.88;8.40;;;22.90;56.10;;;;;;2493036;54;20932;-72
2023/07/02 08:01:21;;;;;;;13.82;8.68;;;22.90;55.90;;;;;;2540705;54;21471;-72
2023/07/02 08:03:49;;;;;;;14.50;8.88;;;23.00;55.80;;;;;;2510374;55;20944;-70
2023/07/02 08:06:20;;;;;;;14.32;8.65;;;22.90;55.60;;;;;;2283464;55;21064;-72
2023/07/02 08:08:49;;;;;;;14.65;9.68;;;23.00;55.60;;;;;;2515556;55;20972;-68
2023/07/02 08:11:16;;;;;;;16.95;9.15;;;23.10;55.50;;;;;;2516097;55;20978;-72
2023/07/02 08:13:42;;;;;;;16.52;8.95;;;23.10;55.30;;;;;;2515730;55;20959;-70
2023/07/02 08:16:58;;;;;;;12.93;8.95;;;23.10;55.10;;;;;;2514785;55;21685;-72
2023/07/02 08:19:33;;;;;;;14.13;8.32;;;23.20;54.30;;;;;;2277654;56;21821;-70
2023/07/02 08:22:00;;;;;;;14.90;8.55;;;23.20;54.60;;;;;;2515313;55;21614;-70
2023/07/02 08:24:26;;;;;;;14.27;8.82;;;23.20;55.00;;;;;;2286994;55;20963;-72
2023/07/02 08:26:53;;;;;;;16.65;9.40;;;23.30;55.00;;;;;;2547264;54;20921;-70
2023/07/02 08:29:23;;;;;;;16.23;9.18;;;23.30;55.10;;;;;;2309695;55;20946;-72
2023/07/02 08:31:51;;;;;;;12.13;7.85;;;23.30;54.80;;;;;;2256732;56;21002;-66
2023/07/02 08:34:20;;;;;;;14.48;8.55;;;23.40;55.00;;;;;;2516210;54;20958;-68
2023/07/02 08:40:21;;;;;;;14.55;9.00;;;23.50;53.80;;;;;;2516863;55;21010;-67
2023/07/02 08:42:48;;;;;;;14.82;9.07;;;23.60;54.50;;;;;;2292171;55;21148;-66
2023/07/02 08:45:25;;;;;;;16.10;9.30;;;23.60;54.10;;;;;;2522695;54;20938;-66
2023/07/02 08:47:53;;;;;;;14.98;8.80;;;23.60;53.60;;;;;;2515622;55;20974;-65
2023/07/02 08:50:53;;;;;;;18.40;9.20;;;23.70;53.80;;;;;;2515911;54;21086;-66
2023/07/02 08:53:19;;;;;;;14.05;8.90;;;23.70;53.20;;;;;;2515739;55;21104;-67
2023/07/02 08:55:46;;;;;;;16.37;10.13;;;23.70;53.70;;;;;;2282138;56;21037;-66
2023/07/02 08:58:12;;;;;;;14.02;9.32;;;23.70;53.60;;;;;;2522185;54;21339;-70
2023/07/02 09:00:39;;;;;;;14.27;8.90;;;23.80;53.70;;;;;;2276966;57;20965;-67
2023/07/02 09:03:17;;;;;;;16.10;9.43;;;23.80;53.60;;;;;;2297267;55;20973;-68
2023/07/02 09:05:53;;;;;;;15.70;9.70;;;23.80;53.10;;;;;;2281846;55;20923;-68
2023/07/02 09:09:01;;;;;;;14.80;9.30;;;23.80;53.20;;;;;;2521659;54;21631;-70
2023/07/02 09:11:28;;;;;;;13.70;8.70;;;23.90;52.90;;;;;;2515783;54;20968;-69
2023/07/02 09:13:59;;;;;;;15.05;8.98;;;23.90;53.50;;;;;;2279299;55;21040;-68
2023/07/02 09:16:28;;;;;;;15.02;8.15;;;23.90;53.30;;;;;;2516023;55;21031;-70
2023/07/02 09:19:03;;;;;;;11.85;7.45;;;24.00;53.30;;;;;;2282058;55;21007;-68
2023/07/02 09:21:43;;;;;;;14.05;8.20;;;24.00;52.90;;;;;;2511066;55;20956;-69
2023/07/02 09:24:19;;;;;;;13.00;7.95;;;24.10;52.60;;;;;;2513145;55;20943;-69
2023/07/02 09:26:55;;;;;;;10.95;7.50;;;24.10;52.70;;;;;;2515453;55;20963;-70
2023/07/02 09:29:32;;;;;;;11.38;7.95;;;24.20;52.60;;;;;;2515204;55;21008;-69
2023/07/02 09:32:03;;;;;;;13.88;8.05;;;24.20;52.40;;;;;;2515621;54;20966;-68
2023/07/02 09:34:36;;;;;;;13.27;7.85;;;24.20;52.50;;;;;;2507248;55;20978;-69
2023/07/02 09:37:04;;;;;;;15.77;8.73;;;24.30;52.50;;;;;;2282530;55;21384;-68
2023/07/02 09:39:32;;;;;;;12.68;7.37;;;24.30;52.40;;;;;;2282801;55;21701;-72
2023/07/02 09:41:59;;;;;;;16.25;8.85;;;24.30;52.40;;;;;;2281546;55;20981;-68
2023/07/02 09:44:34;;;;;;;14.32;8.88;;;24.40;53.00;;;;;;2283809;55;20922;-70
2023/07/02 09:47:21;;;;;;;13.52;8.15;;;24.40;52.20;;;;;;2512809;55;21050;-69
2023/07/02 09:50:08;;;;;;;14.45;9.00;;;24.40;51.60;;;;;;2282551;55;21077;-68
2023/07/02 09:56:15;;;;;;;12.27;7.65;;;24.50;51.40;;;;;;2547519;54;21075;-72
2023/07/02 09:58:44;;;;;;;13.60;8.30;;;24.60;52.30;;;;;;2300507;55;20968;-68
2023/07/02 10:01:10;;;;;;;13.52;8.10;;;24.60;51.90;;;;;;2518058;54;21033;-66
2023/07/02 10:03:37;;;;;;;14.85;8.75;;;24.60;51.80;;;;;;2293429;55;20950;-66
2023/07/02 10:06:16;;;;;;;12.70;7.80;;;24.70;51.60;;;;;;2269710;56;20995;-70
2023/07/02 10:08:55;;;;;;;12.80;8.20;;;24.70;51.30;;;;;;2301107;55;21008;-69
2023/07/02 10:11:33;;;;;;;11.95;7.90;;;24.80;51.00;;;;;;2260138;55;20947;-70
2023/07/02 10:13:59;;;;;;;13.65;7.95;;;24.80;50.90;;;;;;2528321;54;21309;-67
2023/07/02 10:16:27;;;;;;;14.27;7.95;;;24.90;51.50;;;;;;2531597;54;20976;-71
2023/07/02 10:18:54;;;;;;;13.43;8.10;;;25.00;51.40;;;;;;2504422;55;20939;-68
2023/07/02 10:21:21;;;;;;;11.82;8.23;;;25.00;51.10;;;;;;2493230;55;20937;-70
2023/07/02 10:23:48;;;;;;;15.85;9.57;;;25.00;50.70;;;;;;2273589;55;20957;-69
2023/07/02 10:26:17;;;;;;;13.40;8.85;;;25.10;50.60;;;;;;2536014;54;20948;-68
2023/07/02 10:28:58;;;;;;;12.88;8.13;;;25.10;50.30;;;;;;2276783;55;20954;-70
2023/07/02 10:31:24;;;;;;;14.75;9.05;;;25.20;49.90;;;;;;2287609;55;21139;-67
2023/07/02 10:33:51;;;;;;;14.65;8.00;;;25.20;50.10;;;;;;2519304;54;21003;-68
2023/07/02 10:36:23;;;;;;;12.02;8.02;;;25.20;49.90;;;;;;2516169;54;20954;-70
2023/07/02 10:38:50;;;;;;;11.60;7.30;;;25.20;49.70;;;;;;2250966;56;20990;-68
2023/07/02 10:44:51;;;;;;;11.00;6.45;;;25.30;49.40;;;;;;2512094;54;20974;-66
2023/07/02 10:47:18;;;;;;;12.20;8.07;;;25.40;49.80;;;;;;2273859;56;20954;-70
2023/07/02 10:49:48;;;;;;;10.93;7.43;;;25.40;50.00;;;;;;2281695;56;21021;-67
2023/07/02 10:52:14;;;;;;;14.27;8.07;;;25.50;49.90;;;;;;2472375;55;21031;-68
2023/07/02 10:55:18;;;;;;;13.98;8.25;;;25.50;49.90;;;;;;2290964;55;20988;-68
2023/07/02 10:57:44;;;;;;;11.45;7.25;;;25.60;49.30;;;;;;2518970;54;21020;-67
2023/07/02 11:00:11;;;;;;;13.35;7.45;;;25.60;49.60;;;;;;2276803;56;20990;-68
2023/07/02 11:02:39;;;;;;;14.60;8.50;;;25.60;49.40;;;;;;2281758;55;21029;-67
2023/07/02 11:05:11;;;;;;;13.98;8.77;;;25.70;49.50;;;;;;2282288;56;20988;-68
2023/07/02 11:07:44;;;;;;;12.20;7.97;;;25.70;49.40;;;;;;2516066;55;20938;-67
2023/07/02 11:10:16;;;;;;;12.27;7.97;;;25.80;49.50;;;;;;2276613;55;20942;-67
2023/07/02 11:12:54;;;;;;;;;;;25.80;49.20;;;;;;2500375;55;21049;-69
2023/07/02 11:15:23;;;;;;;11.73;7.35;;;25.90;48.90;;;;;;2463447;55;20077;-70
2023/07/02 11:18:09;;;;;;;11.23;7.15;;;26.00;49.20;;;;;;2526293;54;20944;-67
2023/07/02 11:20:36;;;;;;;12.98;7.65;;;26.00;48.20;;;;;;2295572;55;21038;-67
2023/07/02 11:23:34;;;;;;;12.30;7.80;;;26.10;48.80;;;;;;2502884;55;20995;-70
2023/07/02 11:26:06;;;;;;;11.82;7.22;;;26.10;47.60;;;;;;2498213;55;20969;-67
2023/07/02 11:28:37;;;;;;;11.95;7.55;;;26.20;47.80;;;;;;2280651;55;20950;-66
2023/07/02 11:31:05;;;;;;;11.80;7.65;;;26.30;48.30;;;;;;2281935;55;20965;-67
2023/07/02 11:33:38;;;;;;;12.52;7.90;;;26.30;48.00;;;;;;2281035;55;20942;-67
2023/07/02 11:36:05;;;;;;;12.88;8.40;;;26.40;47.70;;;;;;2280252;55;20938;-68
2023/07/02 11:38:33;;;;;;;11.68;7.45;;;26.40;48.00;;;;;;2282945;55;21004;-68
2023/07/02 11:41:01;;;;;;;12.10;8.13;;;26.50;48.00;;;;;;2282552;55;21042;-67
2023/07/02 11:43:27;;;;;;;14.00;8.45;;;26.60;47.80;;;;;;2275061;55;20950;-68
2023/07/02 11:45:56;;;;;;;12.05;7.72;;;26.60;47.60;;;;;;2282650;55;20934;-69
2023/07/02 11:49:04;;;;;;;10.82;6.95;;;26.70;47.50;;;;;;2281434;55;21027;-67
2023/07/02 11:51:32;;;;;;;12.37;7.10;;;26.80;46.70;;;;;;2516561;55;21003;-68
2023/07/02 11:58:12;;;;;;;11.35;7.28;;;26.90;47.00;;;;;;2515783;55;21782;-67
2023/07/02 12:00:39;;;;;;;11.00;7.57;;;27.00;46.70;;;;;;2516655;55;21002;-69
2023/07/02 12:03:05;;;;;;;9.95;6.85;;;27.10;47.20;;;;;;2515267;55;21911;-66
2023/07/02 12:05:41;;;;;;;11.48;7.45;;;27.10;46.90;;;;;;2281261;55;21507;-69
2023/07/02 12:08:08;;;;;;;12.95;8.35;;;27.20;47.00;;;;;;2515277;55;20973;-70
2023/07/02 12:10:35;;;;;;;13.82;8.52;;;27.20;47.30;;;;;;2516028;55;21005;-68
2023/07/02 12:13:02;;;;;;;16.62;10.02;;;27.20;47.40;;;;;;2515320;55;20990;-66
2023/07/02 12:15:28;;;;;;;15.13;10.07;;;27.30;47.70;;;;;;2515750;55;20946;-68
2023/07/02 12:17:54;;;;;;;14.48;9.73;;;27.30;47.70;;;;;;2515706;55;20946;-68
2023/07/02 12:20:22;;;;;;;13.18;8.73;;;27.30;47.50;;;;;;2516120;55;20983;-71
2023/07/02 12:22:48;;;;;;;13.48;9.13;;;27.40;47.20;;;;;;2528273;54;20966;-67
2023/07/02 12:25:18;;;;;;;13.15;8.65;;;27.40;46.80;;;;;;2283049;56;20978;-69
2023/07/02 12:27:44;;;;;;;11.45;7.90;;;27.40;46.40;;;;;;2546961;54;20936;-72
2023/07/02 12:30:12;;;;;;;10.77;7.05;;;27.40;46.30;;;;;;2538621;54;20947;-67
2023/07/02 12:32:38;;;;;;;11.45;7.37;;;27.40;46.30;;;;;;2258287;55;21014;-68
2023/07/02 12:35:07;;;;;;;12.70;8.38;;;27.50;46.30;;;;;;2505532;54;21291;-68
2023/07/02 12:37:33;;;;;;;13.45;9.18;;;27.50;46.20;;;;;;2511389;55;21011;-67
2023/07/02 12:40:01;;;;;;;12.52;7.97;;;27.50;46.10;;;;;;2276992;56;21238;-70
2023/07/02 12:42:28;;;;;;;13.65;8.23;;;27.50;46.20;;;;;;2516659;55;21452;-71
2023/07/02 12:44:56;;;;;;;10.75;7.12;;;27.50;46.20;;;;;;2298093;55;20978;-67
2023/07/02 12:50:55;;;;;;;9.93;6.90;;;27.60;45.90;;;;;;2520949;54;20975;-67
2023/07/02 12:53:22;;;;;;;10.50;7.07;;;27.60;46.10;;;;;;2487927;55;20947;-70
2023/07/02 12:55:49;;;;;;;11.38;7.78;;;27.60;46.20;;;;;;2282644;55;21011;-69
2023/07/02 12:58:15;;;;;;;10.60;6.78;;;27.60;46.20;;;;;;2284213;55;21426;-69
2023/07/02 13:00:42;;;;;;;11.12;7.87;;;27.60;46.10;;;;;;2282254;55;21047;-69
2023/07/02 13:03:14;;;;;;;12.15;7.60;;;27.70;46.00;;;;;;2276376;55;20947;-70
2023/07/02 13:05:42;;;;;;;11.27;7.60;;;27.70;45.70;;;;;;2512288;55;21599;-68
2023/07/02 13:08:10;;;;;;;11.20;7.30;;;27.70;45.90;;;;;;2507674;55;21043;-70
2023/07/02 13:10:37;;;;;;;11.40;7.35;;;27.80;45.70;;;;;;2516282;55;20931;-66
2023/07/02 13:13:22;;;;;;;10.50;6.87;;;27.80;45.60;;;;;;2513909;55;21708;-70
2023/07/02 13:16:14;;;;;;;11.02;7.43;;;27.90;45.00;;;;;;2515159;55;20970;-68
2023/07/02 13:18:42;;;;;;;11.12;6.07;;;27.90;45.10;;;;;;2515751;55;20954;-70
2023/07/02 13:21:10;;;;;;;10.35;6.70;;;28.00;45.40;;;;;;2285368;55;20995;-72
2023/07/02 13:23:37;;;;;;;10.43;7.15;;;28.00;45.20;;;;;;2515826;55;21531;-68
2023/07/02 13:26:03;;;;;;;9.68;6.70;;;28.10;44.90;;;;;;2516013;55;21844;-67
2023/07/02 13:28:30;;;;;;;10.82;7.18;;;28.10;44.70;;;;;;2287609;56;20967;-69
2023/07/02 13:30:56;;;;;;;9.75;6.60;;;28.20;44.90;;;;;;2516073;54;20938;-69
2023/07/02 13:33:22;;;;;;;9.07;6.28;;;28.20;44.80;;;;;;2516387;55;20942;-68
2023/07/02 13:35:49;;;;;;;10.57;6.82;;;28.20;44.60;;;;;;2516471;55;20934;-67